Have a Safe July 4th! 

Flight Track Log - Related Links

Times and Time Zones

All times are in EDT time to prevent confusion due to time zone crossing. See the N64287 flight status page for this flight to view local times or setup timezone preferences in your user account.

Time Position Orientation Groundspeed Altitude Reporting Facility
EDT Latitude Longitude Course Direction KTS MPH feet Rate Location/Type
Fri 03:01:05 PM 46.8925 -96.8083 116° Southeast 56 64 2,900  Level Minneapolis Center
Fri 03:02:07 PM 46.8856 -96.7758 107° East 77 89 3,600 581 Climbing Minneapolis Center
Fri 03:03:09 PM 46.8786 -96.7461 109° East 75 86 4,100 624 Climbing Minneapolis Center
Fri 03:04:12 PM 46.8731 -96.7092 102° East 87 100 4,900 624 Climbing Minneapolis Center
Fri 03:05:00 PM 46.8201 -96.5484 123° Southeast  Level Estimated
Fri 03:05:14 PM 46.8633 -96.6758 113° Southeast 87 100 5,400  Level Minneapolis Center
Fri 03:06:00 PM 46.8033 -96.5040 116° Southeast  Level Estimated
Fri 03:06:16 PM 46.8525 -96.6389 113° Southeast 92 106 6,000  Level Minneapolis Center
Fri 03:07:18 PM 46.8378 -96.6011 120° Southeast 102 117 6,600 532 Climbing Minneapolis Center
Fri 03:08:20 PM 46.8236 -96.5681 122° Southeast 102 117 7,100 484 Climbing Minneapolis Center
Fri 03:09:22 PM 46.8108 -96.5267 114° Southeast 106 122 7,600 484 Climbing Minneapolis Center
Fri 03:10:24 PM 46.7956 -96.4842 118° Southeast 111 128 8,100 484 Climbing Minneapolis Center
Fri 03:11:26 PM 46.7803 -96.4431 118° Southeast 112 129 8,600 387 Climbing Minneapolis Center
Fri 03:12:28 PM 46.7592 -96.4072 131° Southeast 111 128 8,900 194 Climbing Minneapolis Center
Fri 03:13:30 PM 46.7386 -96.3558 120° Southeast 138 159 9,000 48 Climbing Minneapolis Center
Fri 03:14:32 PM 46.7242 -96.3069 113° Southeast 137 158 9,000  Level Minneapolis Center
Fri 03:15:34 PM 46.7075 -96.2539 115° Southeast 138 159 9,000  Level Minneapolis Center
Fri 03:16:36 PM 46.6881 -96.2019 119° Southeast 140 161 9,000  Level Minneapolis Center
Fri 03:17:38 PM 46.6681 -96.1519 120° Southeast 137 158 9,000  Level Minneapolis Center
Fri 03:18:40 PM 46.6467 -96.1019 122° Southeast 139 160 9,000 -48 Level Minneapolis Center
Fri 03:19:42 PM 46.6272 -96.0497 118° Southeast 140 161 8,900 -48 Descending Minneapolis Center
Fri 03:20:44 PM 46.6083 -95.9978 118° Southeast 140 161 8,900  Level Minneapolis Center
Fri 03:21:46 PM 46.5911 -95.9514 118° Southeast 135 155 8,900  Level Minneapolis Center
Fri 03:22:48 PM 46.5697 -95.9008 122° Southeast 139 160 8,900  Level Minneapolis Center
Fri 03:23:49 PM 46.5483 -95.8581 126° Southeast 137 158 8,900  Level Minneapolis Center
Fri 03:24:51 PM 46.5292 -95.8031 117° Southeast 135 155 8,900  Level Minneapolis Center
Fri 03:25:53 PM 46.5106 -95.7503 117° Southeast 138 159 8,900  Level Minneapolis Center
Fri 03:26:55 PM 46.4931 -95.7036 119° Southeast 137 158 8,900  Level Minneapolis Center
Fri 03:27:57 PM 46.4750 -95.6528 117° Southeast 135 155 8,900  Level Minneapolis Center
Fri 03:28:59 PM 46.4586 -95.6081 118° Southeast 139 160 8,900  Level Minneapolis Center
Fri 03:30:00 PM 46.4414 -95.5633 119° Southeast  Level FlightAware Approximate
Fri 03:34:45 PM 46.3428 -95.3244 119° Southeast 208 239 8,900  Level Minneapolis Center
Fri 03:35:47 PM 46.3278 -95.2797 116° Southeast 139 160 9,000 48 Climbing Minneapolis Center
Fri 03:36:49 PM 46.3108 -95.2342 118° Southeast 135 155 9,000  Level Minneapolis Center
Fri 03:37:00 PM 46.3223 -95.2557 119° Southeast  Level FlightAware Approximate
Fri 03:37:52 PM 46.2911 -95.1867 121° Southeast 135 155 9,000  Level Minneapolis Center
Fri 03:38:00 PM 46.3052 -95.2118 119° Southeast  Level FlightAware Approximate
Fri 03:38:54 PM 46.2722 -95.1400 120° Southeast 135 155 9,000  Level Minneapolis Center
Fri 03:39:00 PM 46.2881 -95.1680 119° Southeast  Level FlightAware Approximate
Fri 03:39:56 PM 46.2533 -95.0931 120° Southeast 135 155 9,000  Level Minneapolis Center
Fri 03:40:00 PM 46.2710 -95.1242 119° Southeast  Level FlightAware Approximate
Fri 03:40:57 PM 46.2300 -95.0344 120° Southeast 137 158 9,000  Level Minneapolis Center
Fri 03:41:59 PM 46.2117 -94.9883 120° Southeast 137 158 8,900 -48 Descending Minneapolis Center
Fri 03:43:01 PM 46.1914 -94.9417 122° Southeast 136 157 8,900  Level Minneapolis Center
Fri 03:44:03 PM 46.1761 -94.8994 118° Southeast 132 152 8,900 48 Level Minneapolis Center
Fri 03:45:05 PM 46.1542 -94.8439 120° Southeast 133 153 9,000 48 Climbing Minneapolis Center
Fri 03:46:07 PM 46.1350 -94.7983 121° Southeast 133 153 9,000  Level Minneapolis Center
Fri 03:47:09 PM 46.1164 -94.7539 121° Southeast 131 151 9,000  Level Minneapolis Center
Fri 03:48:11 PM 46.0989 -94.7078 119° Southeast 132 152 9,000  Level Minneapolis Center
Fri 03:49:13 PM 46.0817 -94.6617 118° Southeast 132 152 9,000  Level Minneapolis Center
Fri 03:50:15 PM 46.0636 -94.6167 120° Southeast 131 151 9,000  Level Minneapolis Center
Fri 03:51:17 PM 46.0389 -94.5647 124° Southeast 131 151 9,000  Level Minneapolis Center
Fri 03:52:19 PM 46.0211 -94.5203 120° Southeast 129 148 9,000  Level Minneapolis Center
Fri 03:53:21 PM 46.0056 -94.4736 116° Southeast 130 150 9,000 48 Level Minneapolis Center
Fri 03:54:23 PM 45.9897 -94.4283 117° Southeast 128 147 9,100  Climbing Minneapolis Center
Fri 03:55:25 PM 45.9725 -94.3850 120° Southeast 127 146 9,000 -48 Descending Minneapolis Center
Fri 03:56:27 PM 45.9542 -94.3397 120° Southeast 129 148 9,000 -48 Level Minneapolis Center
Fri 03:57:29 PM 45.9297 -94.2889 125° Southeast 130 150 8,900  Descending Minneapolis Center
Fri 03:58:30 PM 45.9114 -94.2458 121° Southeast 129 148 9,000 49 Climbing Minneapolis Center
Fri 03:59:32 PM 45.8922 -94.2056 124° Southeast 125 144 9,000  Level Minneapolis Center
Fri 04:00:34 PM 45.8744 -94.1575 118° Southeast 126 145 9,000  Level Minneapolis Center
Fri 04:01:36 PM 45.8569 -94.1150 121° Southeast 128 147 9,000  Level Minneapolis Center
Fri 04:02:38 PM 45.8389 -94.0733 122° Southeast 128 147 9,000  Level Minneapolis Center
Fri 04:03:40 PM 45.8228 -94.0253 116° Southeast 125 144 9,000  Level Minneapolis Center
Fri 04:04:42 PM 45.8028 -93.9747 120° Southeast 127 146 9,000 -48 Level Minneapolis Center
Fri 04:05:44 PM 45.7833 -93.9336 124° Southeast 126 145 8,900 -48 Descending Minneapolis Center
Fri 04:06:46 PM 45.7644 -93.8906 122° Southeast 128 147 8,900  Level Minneapolis Center
Fri 04:07:48 PM 45.7456 -93.8458 121° Southeast 130 150 8,900 48 Level Minneapolis Center
Fri 04:08:50 PM 45.7275 -93.8036 121° Southeast 128 147 9,000  Climbing Minneapolis Center
Fri 04:09:52 PM 45.7078 -93.7514 118° Southeast 124 143 8,900 -48 Descending Minneapolis Center
Fri 04:10:54 PM 45.6908 -93.7089 120° Southeast 124 143 8,900  Level Minneapolis Center
Fri 04:11:56 PM 45.6692 -93.6667 126° Southeast 130 150 8,900  Level Minneapolis Center
Fri 04:12:58 PM 45.6531 -93.6233 118° Southeast 125 144 8,900 48 Level Minneapolis Center
Fri 04:14:01 PM 45.6378 -93.5800 117° Southeast 125 144 9,000 96 Climbing Minneapolis Center
Fri 04:15:03 PM 45.6203 -93.5367 120° Southeast 127 146 9,100 48 Climbing Minneapolis Center
Fri 04:16:05 PM 45.5989 -93.4844 120° Southeast 129 148 9,100  Level Minneapolis Center
Fri 04:17:19 PM 45.5806 -93.4417 121° Southeast 129 148 9,100  Level Minneapolis Center
Fri 04:18:21 PM 45.5578 -93.3919 123° Southeast 127 146 9,100  Level Minneapolis Center
Fri 04:19:23 PM 45.5383 -93.3486 123° Southeast 129 148 9,100  Level Minneapolis Center
Fri 04:20:25 PM 45.5189 -93.3067 123° Southeast 128 147 9,100 -48 Level Minneapolis Center
Fri 04:21:27 PM 45.4978 -93.2536 120° Southeast 129 148 9,000  Descending Minneapolis Center
Fri 04:22:41 PM 45.4792 -93.2100 121° Southeast 129 148 9,100 44 Climbing Minneapolis Center
Fri 04:23:44 PM 45.4589 -93.1583 119° Southeast 126 145 9,100  Level Minneapolis Center
Fri 04:24:46 PM 45.4394 -93.1181 125° Southeast 125 144 9,100 -145 Level Minneapolis Center
Fri 04:25:48 PM 45.4189 -93.0747 124° Southeast 131 151 8,800 -387 Descending Minneapolis Center
Fri 04:26:50 PM 45.3944 -93.0319 129° Southeast 138 159 8,300 -484 Descending Minneapolis Center
Fri 04:27:52 PM 45.3708 -92.9756 121° Southeast 139 160 7,800 -532 Descending Minneapolis Center
Fri 04:28:54 PM 45.3536 -92.9269 117° Southeast 138 159 7,200 -387 Descending Minneapolis Center
Fri 04:29:56 PM 45.3367 -92.8789 117° Southeast 137 158 7,000 -97 Descending Minneapolis Center
Fri 04:30:58 PM 45.3200 -92.8392 121° Southeast 121 139 7,000 48 Level Minneapolis Center
Fri 04:32:00 PM 45.3042 -92.8008 120° Southeast 115 132 7,100 48 Climbing Minneapolis Center
Fri 04:33:02 PM 45.2833 -92.7542 122° Southeast 117 135 7,100  Level Minneapolis Center
Fri 04:34:05 PM 45.2678 -92.7122 118° Southeast 119 137 7,100  Level Minneapolis Center
Fri 04:35:07 PM 45.2500 -92.6719 122° Southeast 120 138 7,100 -48 Level Minneapolis Center
Fri 04:36:09 PM 45.2325 -92.6319 122° Southeast 121 139 7,000 -97 Descending Minneapolis Center
Fri 04:37:11 PM 45.2136 -92.5922 124° Southeast 122 140 6,900 -48 Descending Minneapolis Center
Fri 04:38:13 PM 45.1947 -92.5533 125° Southeast 121 139 6,900  Level Minneapolis Center
Fri 04:39:15 PM 45.1750 -92.5053 120° Southeast 118 136 6,900 48 Level Minneapolis Center
Fri 04:40:17 PM 45.1583 -92.4681 122° Southeast 113 130 7,000 97 Climbing Minneapolis Center
Fri 04:41:19 PM 45.1411 -92.4308 123° Southeast 113 130 7,100 -88 Climbing Minneapolis Center
Fri 04:42:33 PM 45.1233 -92.3892 121° Southeast 122 140 6,800 -394 Descending Minneapolis Center
Fri 04:43:36 PM 45.0997 -92.3383 123° Southeast 128 147 6,200 -432 Descending Minneapolis Center
Fri 04:44:38 PM 45.0806 -92.2942 122° Southeast 131 151 5,900 -387 Descending Minneapolis Center
Fri 04:45:40 PM 45.0592 -92.2439 121° Southeast 125 144 5,400 -397 Descending Minneapolis Center
Fri 04:46:54 PM 45.0406 -92.2028 123° Southeast 124 143 5,000 -397 Descending Minneapolis Center
Fri 04:47:56 PM 45.0219 -92.1578 120° Southeast 114 131 4,500 -435 Descending Minneapolis Center
Fri 04:48:58 PM 45.0069 -92.1214 120° Southeast 109 125 4,100 -290 Descending Minneapolis Center
Fri 04:50:00 PM 44.9892 -92.0864 126° Southeast 109 125 3,900 -145 Descending Minneapolis Center
Fri 04:51:02 PM 44.9672 -92.0453 127° Southeast 110 127 3,800 -290 Descending Minneapolis Center
Fri 04:52:04 PM 44.9519 -92.0078 120° Southeast 110 127 3,300 -339 Descending Minneapolis Center
Fri 04:53:06 PM 44.9378 -91.9717 119° Southeast 109 125 3,100 -194 Descending Minneapolis Center

Login

Don't have an account? Register now (free) for customized features, flight alerts, and more!